createdAt,value
2023-03-06T00:02:36.282Z,4.13
2023-03-06T00:07:39.016Z,5.03
2023-03-06T00:12:41.810Z,4.25
2023-03-06T00:17:44.408Z,4.00
2023-03-06T00:22:47.493Z,4.50
2023-03-06T00:27:51.018Z,4.30
2023-03-06T00:32:54.175Z,4.03
2023-03-06T00:37:59.626Z,4.50
2023-03-06T00:43:02.476Z,4.63
2023-03-06T00:48:07.250Z,4.93
2023-03-06T00:53:11.134Z,3.88
2023-03-06T00:58:14.639Z,4.45
2023-03-06T01:03:17.304Z,4.47
2023-03-06T01:08:20.012Z,4.05
2023-03-06T01:13:23.327Z,4.22
2023-03-06T01:18:27.525Z,4.43
2023-03-06T01:23:31.137Z,4.38
2023-03-06T01:28:37.617Z,4.88
2023-03-06T01:33:41.662Z,4.15
2023-03-06T01:38:44.283Z,4.50
2023-03-06T01:43:50.037Z,4.78
2023-03-06T01:49:18.864Z,4.78
2023-03-06T01:54:37.369Z,4.28
2023-03-06T01:59:43.310Z,4.18
2023-03-06T02:04:46.644Z,5.65
2023-03-06T02:09:49.304Z,5.25
2023-03-06T02:14:52.131Z,4.50
2023-03-06T02:20:21.220Z,4.60
2023-03-06T02:25:33.043Z,5.07
2023-03-06T02:30:36.909Z,4.20
2023-03-06T02:35:40.115Z,5.00
2023-03-06T02:40:44.625Z,6.55
2023-03-06T02:45:49.587Z,7.63
2023-03-06T02:50:52.123Z,8.65
2023-03-06T02:55:54.861Z,9.90
2023-03-06T03:00:57.452Z,10.05
2023-03-06T03:06:00.980Z,6.88
2023-03-06T03:11:09.247Z,9.80
2023-03-06T03:16:15.816Z,14.73
2023-03-06T03:21:18.790Z,16.88
2023-03-06T03:31:43.205Z,16.73
2023-03-06T03:36:46.480Z,19.02
2023-03-06T03:41:58.316Z,20.52
2023-03-06T03:47:01.375Z,19.90
2023-03-06T03:52:04.839Z,18.92
2023-03-06T03:57:10.938Z,19.08
2023-03-06T04:02:17.857Z,19.70
2023-03-06T04:07:31.563Z,21.37
2023-03-06T04:12:34.278Z,20.27
2023-03-06T04:17:38.715Z,22.02
2023-03-06T04:22:45.095Z,20.45
2023-03-06T04:27:48.831Z,20.87
2023-03-06T04:32:51.592Z,19.42
2023-03-06T04:37:55.710Z,19.77
2023-03-06T04:43:00.919Z,23.15
2023-03-06T04:48:03.922Z,22.08
2023-03-06T04:53:08.716Z,20.20
2023-03-06T05:03:14.879Z,14.00
2023-03-06T05:08:18.714Z,17.30
2023-03-06T05:13:21.294Z,19.23
2023-03-06T05:18:24.039Z,15.80
2023-03-06T05:23:32.631Z,12.20
2023-03-06T05:28:35.575Z,10.50
2023-03-06T05:33:38.055Z,10.15
2023-03-06T05:38:41.886Z,11.82
2023-03-06T05:44:03.225Z,10.40
2023-03-06T05:49:06.054Z,11.13
2023-03-06T05:54:08.840Z,10.82
2023-03-06T05:59:12.077Z,6.68
2023-03-06T06:04:15.465Z,12.63
2023-03-06T06:09:18.437Z,12.75
2023-03-06T06:14:21.276Z,10.93
2023-03-06T06:19:23.916Z,12.55
2023-03-06T06:24:27.611Z,10.90
2023-03-06T06:29:30.499Z,12.07
2023-03-06T06:34:34.210Z,10.68
2023-03-06T06:39:37.108Z,9.63
2023-03-06T06:44:40.053Z,8.38
2023-03-06T06:49:45.023Z,8.23
2023-03-06T06:59:52.543Z,5.97
2023-03-06T07:05:04.180Z,5.10
2023-03-06T07:10:12.881Z,5.95
2023-03-06T07:15:18.492Z,6.30
2023-03-06T07:20:21.706Z,6.60
2023-03-06T07:25:24.372Z,5.47
2023-03-06T07:30:27.082Z,4.88
2023-03-06T07:35:29.796Z,5.15
2023-03-06T07:40:32.821Z,5.32
2023-03-06T07:45:35.442Z,4.90
2023-03-06T07:50:39.099Z,5.20
2023-03-06T07:55:41.743Z,3.97
2023-03-06T08:00:44.463Z,4.32
2023-03-06T08:05:47.687Z,3.45
2023-03-06T08:10:50.554Z,3.30
2023-03-06T08:15:53.164Z,3.47
2023-03-06T08:21:05.012Z,3.30
2023-03-06T08:26:13.563Z,3.03
2023-03-06T08:31:37.464Z,2.80
2023-03-06T08:36:42.577Z,2.53
2023-03-06T08:42:03.578Z,1.93
2023-03-06T08:47:06.144Z,1.88
2023-03-06T08:52:08.699Z,1.60
2023-03-06T08:57:11.249Z,1.38
2023-03-06T09:02:15.455Z,1.25
2023-03-06T09:07:18.458Z,1.20
2023-03-06T09:12:22.302Z,1.48
2023-03-06T09:17:25.648Z,0.88
2023-03-06T09:22:28.785Z,1.33
2023-03-06T09:27:31.575Z,1.25
2023-03-06T09:32:35.393Z,1.25
2023-03-06T09:37:39.422Z,1.67
2023-03-06T09:42:42.028Z,1.15
2023-03-06T09:48:08.155Z,1.00
2023-03-06T09:53:34.275Z,1.48
2023-03-06T09:58:44.458Z,1.27
2023-03-06T10:03:48.818Z,1.60
2023-03-06T10:09:03.602Z,1.75
2023-03-06T10:14:28.697Z,1.45
2023-03-06T10:19:36.601Z,1.70
2023-03-06T10:24:42.906Z,1.60
2023-03-06T10:30:03.098Z,1.67
2023-03-06T10:35:16.070Z,1.30
2023-03-06T10:40:23.090Z,1.15
2023-03-06T10:45:25.726Z,1.30
2023-03-06T10:50:30.718Z,0.90
2023-03-06T10:55:37.916Z,1.33
2023-03-06T11:00:40.528Z,1.27
2023-03-06T11:06:00.555Z,1.20
2023-03-06T11:11:07.176Z,1.35
2023-03-06T11:16:25.960Z,1.00
2023-03-06T11:21:34.074Z,1.20
2023-03-06T11:26:59.533Z,1.38
2023-03-06T11:32:31.060Z,1.35
2023-03-06T11:37:58.411Z,1.58
2023-03-06T11:43:27.200Z,1.38
2023-03-06T11:48:42.495Z,2.08
2023-03-06T11:53:45.190Z,1.35
2023-03-06T11:58:56.817Z,1.55
2023-03-06T12:04:14.419Z,1.52
2023-03-06T12:09:26.148Z,2.15
2023-03-06T12:14:43.067Z,1.67
2023-03-06T12:19:58.906Z,1.80
2023-03-06T12:25:18.551Z,1.80
2023-03-06T12:30:39.332Z,1.90
2023-03-06T12:36:27.581Z,2.08
2023-03-06T12:41:49.060Z,2.60
2023-03-06T12:46:57.065Z,2.60
2023-03-06T12:52:00.291Z,3.35
2023-03-06T12:57:03.523Z,2.40
2023-03-06T13:02:31.422Z,2.35
2023-03-06T13:07:56.182Z,2.72
2023-03-06T13:13:05.201Z,3.20
2023-03-06T13:18:39.646Z,2.83
2023-03-06T13:23:51.701Z,2.95
2023-03-06T13:28:55.597Z,3.28
2023-03-06T13:34:16.761Z,4.32
2023-03-06T13:39:19.416Z,3.28
2023-03-06T13:44:25.121Z,4.25
2023-03-06T13:49:28.158Z,5.55
2023-03-06T13:54:42.588Z,4.90
2023-03-06T14:00:15.360Z,7.20
2023-03-06T14:05:19.251Z,5.65
2023-03-06T14:10:26.119Z,6.05
2023-03-06T14:15:36.399Z,6.07
2023-03-06T14:20:45.386Z,6.88
2023-03-06T14:25:59.229Z,7.50
2023-03-06T14:31:04.837Z,8.13
2023-03-06T14:41:14.134Z,11.02
2023-03-06T14:46:22.524Z,8.93
2023-03-06T14:51:28.293Z,9.48
2023-03-06T14:56:34.588Z,10.13
2023-03-06T15:01:42.424Z,6.82
2023-03-06T15:06:45.537Z,7.20
2023-03-06T15:11:59.637Z,7.70
2023-03-06T15:17:24.937Z,8.55
2023-03-06T15:22:41.523Z,5.80
2023-03-06T15:27:54.579Z,7.88
2023-03-06T15:33:25.897Z,7.15
2023-03-06T15:38:35.443Z,7.05
2023-03-06T15:43:39.527Z,7.35
2023-03-06T15:48:57.003Z,6.53
2023-03-06T15:54:11.374Z,6.65
2023-03-06T15:59:21.815Z,5.60
2023-03-06T16:04:24.430Z,7.20
2023-03-06T16:09:27.227Z,7.57
2023-03-06T16:14:29.943Z,4.07
2023-03-06T16:19:32.544Z,5.72
2023-03-06T16:24:35.081Z,7.18
2023-03-06T16:29:38.004Z,8.75
2023-03-06T16:34:40.545Z,9.68
2023-03-06T16:39:46.004Z,10.27
2023-03-06T16:44:48.745Z,11.30
2023-03-06T16:49:55.917Z,10.40
2023-03-06T16:54:58.635Z,12.43
2023-03-06T17:00:01.468Z,14.30
2023-03-06T17:05:05.122Z,14.90
2023-03-06T17:10:11.265Z,12.18
2023-03-06T17:15:13.856Z,15.38
2023-03-06T17:20:16.525Z,14.57
2023-03-06T17:25:19.168Z,14.77
2023-03-06T17:30:21.942Z,12.98
2023-03-06T17:35:24.558Z,12.98
2023-03-06T17:40:27.661Z,16.40
2023-03-06T17:45:30.576Z,15.77
2023-03-06T17:50:33.202Z,16.70
2023-03-06T17:55:38.600Z,18.27
2023-03-06T18:00:41.789Z,17.95
2023-03-06T18:05:44.444Z,18.15
2023-03-06T18:10:47.678Z,17.27
2023-03-06T18:15:50.292Z,18.50
2023-03-06T18:20:52.903Z,20.83
2023-03-06T18:26:12.340Z,17.70
2023-03-06T18:31:25.370Z,19.27
2023-03-06T18:36:30.237Z,17.52
2023-03-06T18:41:53.465Z,18.80
2023-03-06T18:46:59.666Z,16.25
2023-03-06T18:52:02.282Z,20.38
2023-03-06T18:57:23.420Z,14.27
2023-03-06T19:02:26.389Z,17.30
2023-03-06T19:07:28.982Z,17.05
2023-03-06T19:12:36.615Z,15.60
2023-03-06T19:17:39.220Z,14.40
2023-03-06T19:22:41.800Z,10.18
2023-03-06T19:27:46.114Z,15.77
2023-03-06T19:32:48.853Z,14.02
2023-03-06T19:37:52.081Z,18.35
2023-03-06T19:42:55.724Z,16.55
2023-03-06T19:48:00.991Z,16.23
2023-03-06T19:53:04.613Z,14.65
2023-03-06T19:58:07.602Z,17.00
2023-03-06T20:03:10.262Z,19.63
2023-03-06T20:08:13.177Z,17.13
2023-03-06T20:13:15.758Z,17.02
2023-03-06T20:18:18.333Z,18.52
2023-03-06T20:23:21.251Z,12.48
2023-03-06T20:28:23.853Z,13.43
2023-03-06T20:33:50.001Z,13.65
2023-03-06T20:38:52.693Z,14.63
2023-03-06T20:43:55.873Z,13.80
2023-03-06T20:48:59.624Z,15.93
2023-03-06T20:54:03.268Z,19.37
2023-03-06T20:59:06.972Z,21.10
2023-03-06T21:04:13.938Z,17.30
2023-03-06T21:09:17.747Z,19.08
2023-03-06T21:14:20.360Z,22.33
2023-03-06T21:19:22.929Z,15.82
2023-03-06T21:24:25.616Z,20.42
2023-03-06T21:29:28.139Z,14.52
2023-03-06T21:34:30.837Z,9.75
2023-03-06T21:39:33.564Z,17.30
2023-03-06T21:44:36.185Z,15.15
2023-03-06T21:49:38.876Z,22.20
2023-03-06T21:54:41.663Z,19.67
2023-03-06T21:59:44.327Z,20.30
2023-03-06T22:04:51.279Z,10.30
2023-03-06T22:09:54.072Z,18.77
2023-03-06T22:15:15.328Z,21.98
2023-03-06T22:20:18.242Z,18.60
2023-03-06T22:25:20.983Z,11.95
2023-03-06T22:30:26.067Z,14.40
2023-03-06T22:35:29.126Z,16.02
2023-03-06T22:40:32.775Z,17.20
2023-03-06T22:45:35.428Z,12.57
2023-03-06T22:50:38.510Z,13.40
2023-03-06T22:55:41.227Z,13.77
2023-03-06T23:00:43.730Z,16.73
2023-03-06T23:05:46.341Z,12.63
2023-03-06T23:10:50.182Z,13.05
2023-03-06T23:16:12.356Z,11.80
2023-03-06T23:21:34.565Z,11.68
2023-03-06T23:26:55.778Z,11.57
2023-03-06T23:31:58.358Z,11.90
2023-03-06T23:37:01.058Z,7.85
2023-03-06T23:42:23.275Z,9.70
2023-03-06T23:47:26.029Z,8.65
2023-03-06T23:52:29.916Z,10.88
2023-03-06T23:57:33.012Z,10.40
